• Join FlightAware (Why Join?)
  • Login
  • US Flag 
11:59AM EDT


 

Airport Tracker/Info


-or-


 

Live Flight TrackerFlight Track Log ✈ SWA709 ✈ 01-May-2013 ✈ KAUS - KLAS

Flight Track Log - Related Links

Times and Time Zones

All times are in EDT time to prevent confusion due to time zone crossing. See the SWA709 flight status page for this flight to view local times or setup timezone preferences in your user account.

Time Position Orientation Groundspeed Altitude Reporting Facility
EDT Latitude Longitude Course Direction KTS MPH feet Rate Location/Type
07:25AM 30.1517 -97.6914 276° West 178 205 3,000  Level Houston Center
07:26AM 30.1428 -97.7425 259° West 223 257 5,900 2,880 Climbing Houston Center
07:27AM 30.1881 -97.7956 315° West 227 261 8,900 2,700 Climbing Houston Center
07:28AM 30.2397 -97.8581 314° West 249 287 11,500 2,940 Climbing Houston Center
07:29AM 30.2653 -97.9681 285° West 321 369 14,900 3,000 Climbing Houston Center
07:30AM 30.4144 -97.8920 276° West  Level FlightAware Approximate
07:30AM 30.2853 -98.0794 282° West 330 380 17,700  Level Houston Center
07:31AM 30.3069 -98.1967 282° West 365 420 20,900 2,700 Climbing Houston Center
07:32AM 30.3286 -98.3081 283° West 384 442 23,200 2,280 Climbing Houston Center
07:33AM 30.3522 -98.4392 282° West 409 471 25,600 2,400 Climbing Houston Center
07:34AM 30.3767 -98.5725 282° West 419 482 28,100 2,100 Climbing Houston Center
07:35AM 30.4067 -98.7058 285° West 422 486 29,900 1,620 Climbing Houston Center
07:36AM 30.4375 -98.8469 284° West 444 511 31,500 1,620 Climbing Houston Center
07:37AM 30.4697 -98.9897 285° West 452 520 33,300 1,620 Climbing Houston Center
07:38AM 30.5006 -99.1275 285° West 453 521 34,900 1,800 Climbing Houston Center
07:39AM 30.5306 -99.2675 284° West 450 518 37,000 1,860 Climbing Houston Center
07:40AM 30.5644 -99.4261 284° West 426 490 38,800 1,260 Climbing Houston Center
07:41AM 30.5917 -99.5589 283° West 425 489 39,600 540 Climbing Houston Center
07:42AM 30.6203 -99.6953 284° West 435 501 40,000 180 Climbing Houston Center
07:43AM 30.6472 -99.8278 283° West 427 491 40,000  Level Houston Center
07:44AM 30.6767 -99.9656 284° West 440 506 40,000  Level Houston Center
07:45AM 30.7044 -100.0986 284° West 429 494 40,000  Level Houston Center
07:46AM 30.7303 -100.2333 283° West 432 497 40,000  Level Houston Center
07:47AM 30.7581 -100.3667 284° West 431 496 40,000  Level Houston Center
07:48AM 30.7922 -100.5281 284° West 428 493 40,000  Level Houston Center
07:49AM 30.8186 -100.6631 283° West 431 496 40,000  Level Houston Center
07:50AM 30.8447 -100.8000 283° West 438 504 40,000  Level Houston Center
07:51AM 30.8725 -100.9353 283° West 434 499 40,000  Level Houston Center
07:52AM 30.8981 -101.0722 282° West 435 501 40,000  Level Houston Center
07:53AM 30.9289 -101.2053 285° West 426 490 40,000  Level Houston Center
07:54AM 30.9581 -101.3594 282° West 432 497 40,000  Level Houston Center
07:55AM 30.9844 -101.4964 283° West 436 502 40,000  Level Albuquerque Center
07:56AM 31.0100 -101.6333 282° West 435 501 40,000  Level Albuquerque Center
07:57AM 31.0361 -101.7694 283° West 432 497 40,000  Level Albuquerque Center
07:58AM 31.0658 -101.9233 283° West 430 495 40,000  Level Albuquerque Center
07:59AM 31.0911 -102.0647 282° West 441 507 40,000  Level Albuquerque Center
08:00AM 31.1169 -102.1997 283° West 430 495 40,000  Level Albuquerque Center
08:01AM 31.1417 -102.3361 282° West 429 494 40,000  Level Albuquerque Center
08:02AM 31.1675 -102.4731 282° West 431 496 40,000  Level Albuquerque Center
08:03AM 31.1908 -102.5972 282° West 425 489 40,000  Level Albuquerque Center
08:04AM 31.2156 -102.7347 282° West 428 493 40,000  Level Albuquerque Center
08:05AM 31.2408 -102.8703 282° West 428 493 40,000  Level Albuquerque Center
08:06AM 31.2653 -103.0058 282° West 428 493 40,000  Level Albuquerque Center
08:07AM 31.2900 -103.1419 282° West 428 493 40,000  Level Albuquerque Center
08:08AM 31.3142 -103.2764 282° West 425 489 40,000  Level Albuquerque Center
08:10AM 31.3392 -103.4094 282° West 420 483 40,000  Level Albuquerque Center
08:11AM 31.3992 -103.5294 300° West 425 489 40,000  Level Albuquerque Center
08:12AM 31.4558 -103.6483 299° West 421 484 40,000  Level Albuquerque Center
08:13AM 31.5175 -103.7742 300° West 422 486 40,000  Level Albuquerque Center
08:14AM 31.5747 -103.8944 299° West 422 486 40,000  Level Albuquerque Center
08:15AM 31.6333 -104.0147 300° West 425 489 40,000  Level Albuquerque Center
08:16AM 31.6897 -104.1344 299° West 424 488 40,000  Level Albuquerque Center
08:17AM 31.7489 -104.2550 300° West 426 490 40,000  Level Albuquerque Center
08:18AM 31.8056 -104.3764 299° West 426 490 40,000  Level Albuquerque Center
08:19AM 31.8625 -104.4942 300° West 419 482 40,000  Level Albuquerque Center
08:20AM 31.9308 -104.6411 299° West 425 489 40,000  Level Albuquerque Center
08:21AM 31.9853 -104.7556 299° West 411 473 40,000  Level Albuquerque Center
08:22AM 32.0403 -104.8739 299° West 412 474 40,000  Level Albuquerque Center
08:23AM 32.0961 -104.9919 299° West 413 475 40,000  Level Albuquerque Center
08:24AM 32.1514 -105.1103 299° West 413 475 40,000  Level Albuquerque Center
08:25AM 32.2061 -105.2308 298° West 417 480 40,000  Level Albuquerque Center
08:26AM 32.2617 -105.3536 298° West 423 487 40,000  Level Albuquerque Center
08:27AM 32.3175 -105.4750 299° West 423 487 40,000  Level Albuquerque Center
08:28AM 32.3725 -105.5961 298° West 421 484 40,000  Level Albuquerque Center
08:29AM 32.4281 -105.7161 299° West 418 481 40,000  Level Albuquerque Center
08:30AM 32.4839 -105.8411 298° West 427 491 40,000  Level Albuquerque Center
08:31AM 32.5397 -105.9625 299° West 421 484 40,000  Level Albuquerque Center
08:32AM 32.6019 -106.0992 298° West 415 478 40,000  Level Albuquerque Center
08:33AM 32.6497 -106.2056 298° West 422 486 40,000  Level Albuquerque Center
08:34AM 32.7106 -106.3417 298° West 423 487 40,000  Level Albuquerque Center
08:35AM 32.7661 -106.4642 298° West 422 486 40,000  Level Albuquerque Center
08:36AM 32.8203 -106.5856 298° West 421 484 40,000  Level Albuquerque Center
08:37AM 32.8744 -106.7089 298° West 423 487 40,000  Level Albuquerque Center
08:38AM 32.9306 -106.8333 298° West 428 493 40,000  Level Albuquerque Center
08:39AM 32.9853 -106.9589 297° West 430 495 40,000  Level Albuquerque Center
08:40AM 33.0408 -107.0858 298° West 434 499 40,000  Level Albuquerque Center
08:41AM 33.0953 -107.2117 297° West 432 497 40,000  Level Albuquerque Center
08:42AM 33.1503 -107.3361 298° West 429 494 40,000  Level Albuquerque Center
08:43AM 33.2050 -107.4631 297° West 432 497 40,000  Level Albuquerque Center
08:44AM 33.2606 -107.5903 298° West 433 498 40,000  Level Albuquerque Center
08:45AM 33.3150 -107.7161 297° West 431 496 40,000  Level Albuquerque Center
08:46AM 33.3803 -107.8689 297° West 431 496 40,000  Level Albuquerque Center
08:47AM 33.4347 -107.9939 298° West 428 493 40,000  Level Albuquerque Center
08:48AM 33.4875 -108.1206 297° West 427 491 40,000  Level Albuquerque Center
08:49AM 33.5428 -108.2425 299° West 424 488 40,000  Level Albuquerque Center
08:50AM 33.5936 -108.3650 297° West 419 482 40,000  Level Albuquerque Center
08:51AM 33.6467 -108.4875 298° West 419 482 40,000  Level Albuquerque Center
08:52AM 33.6975 -108.6114 296° West 420 483 40,000  Level Albuquerque Center
08:53AM 33.7500 -108.7350 297° West 422 486 40,000  Level Albuquerque Center
08:54AM 33.8011 -108.8597 296° West 422 486 40,000  Level Albuquerque Center
08:55AM 33.8525 -108.9817 297° West 419 482 40,000  Level Albuquerque Center
08:56AM 33.9125 -109.1272 296° West 413 475 40,000  Level Albuquerque Center
08:57AM 33.9631 -109.2478 297° West 411 473 40,000  Level Albuquerque Center
08:58AM 34.0139 -109.3706 297° West 412 474 40,000  Level Albuquerque Center
08:59AM 34.0658 -109.4953 297° West 414 476 40,000  Level Albuquerque Center
09:00AM 34.1147 -109.6172 296° West 418 481 40,000  Level Albuquerque Center
09:01AM 34.1836 -109.7506 302° West 414 476 40,000  Level Albuquerque Center
09:02AM 34.2419 -109.8633 302° West 416 479 40,000  Level Albuquerque Center
09:03AM 34.3003 -109.9758 302° West 413 475 40,000  Level Albuquerque Center
09:04AM 34.3686 -110.1089 302° West 415 478 40,000  Level Albuquerque Center
09:05AM 34.4267 -110.2250 301° West 417 480 40,000  Level Albuquerque Center
09:06AM 34.4858 -110.3400 302° West 418 481 40,000  Level Albuquerque Center
09:07AM 34.5556 -110.4783 301° West 426 490 40,000  Level Albuquerque Center
09:08AM 34.6128 -110.5917 302° West 419 482 40,000  Level Albuquerque Center
09:09AM 34.6689 -110.7053 301° West 413 475 40,000  Level Albuquerque Center
09:10AM 34.7222 -110.8156 300° West 405 466 40,000  Level Albuquerque Center
09:11AM 34.7786 -110.9297 301° West 400 460 40,000  Level Albuquerque Center
09:12AM 34.8350 -111.0400 302° West 391 450 40,000  Level Albuquerque Center
09:13AM 34.8922 -111.1567 301° West 397 457 40,000 -300 Level Albuquerque Center
09:14AM 34.9594 -111.2944 301° West 396 456 39,400 -840 Descending Albuquerque Center
09:15AM 35.0161 -111.4092 301° West 396 456 38,400 -960 Descending Albuquerque Center
09:16AM 35.0725 -111.5256 301° West 400 460 37,500 -960 Descending Albuquerque Center
09:17AM 35.1306 -111.6444 301° West 406 467 36,500 -1,500 Descending Albuquerque Center
09:18AM 35.1736 -111.7814 291° West 407 468 34,500 -2,460 Descending Albuquerque Center
09:19AM 35.2092 -111.9150 288° West 415 478 31,600 -2,220 Descending Albuquerque Center
09:20AM 35.2453 -112.0494 288° West 417 480 30,000 -840 Descending Albuquerque Center
09:21AM 35.2817 -112.1853 288° West 421 484 30,000  Level Albuquerque Center
09:22AM 35.3161 -112.3200 287° West 419 482 30,000  Level Albuquerque Center
09:23AM 35.3503 -112.4531 288° West 416 479 30,000  Level Albuquerque Center
09:24AM 35.3819 -112.5761 288° West 390 449 30,000  Level Albuquerque Center
09:25AM 35.3944 -112.6225 288° West 374 430 30,000 -600 Level Los Angeles Center
09:26AM 35.4222 -112.7297 288° West 347 399 29,200 -840 Descending Los Angeles Center
09:27AM 35.4522 -112.8506 287° West 365 420 28,400 -840 Descending Los Angeles Center
09:28AM 35.4822 -112.9728 287° West 377 434 27,500 -960 Descending Los Angeles Center
09:29AM 35.5139 -113.0989 287° West 385 443 26,500 -1,140 Descending Los Angeles Center
09:30AM 35.5517 -113.2464 288° West 379 436 25,300 -1,140 Descending Los Angeles Center
09:31AM 35.5792 -113.3608 286° West 369 425 24,300 -660 Descending Los Angeles Center
09:32AM 35.6089 -113.4803 287° West 368 423 24,000 -180 Descending Los Angeles Center
09:33AM 35.6336 -113.5989 284° West 362 417 24,000 -600 Level Los Angeles Center
09:34AM 35.6494 -113.7208 279° West 364 419 22,900 -1,680 Descending Los Angeles Center
09:35AM 35.6667 -113.8394 280° West 356 410 20,600 -1,920 Descending Los Angeles Center
09:36AM 35.6836 -113.9542 280° West 345 397 19,000 -1,920 Descending Los Angeles Center
09:37AM 35.7011 -114.0861 279° West 329 379 16,800 -2,220 Descending Los Angeles Center
09:38AM 35.7194 -114.1953 282° West 323 372 14,600 -2,100 Descending Los Angeles Center
09:39AM 35.7322 -114.2997 279° West 317 365 12,600 -1,380 Descending Los Angeles Center
09:40AM 35.7661 -114.3919 294° West 308 354 11,900 -420 Descending Los Angeles Center
09:40AM 35.7858 -114.4039 334° Northwest 313 360 12,100 -240 Climbing Los Angeles Center
09:41AM 35.8247 -114.4597 311° West 296 341 11,700 -600 Descending Los Angeles Center
09:41AM 35.8361 -114.4808 304° West 291 335 11,500 -1,080 Descending Los Angeles Center
09:42AM 35.8794 -114.5503 308° West 290 334 10,500 -1,200 Descending Los Angeles Center
09:43AM 35.9203 -114.6164 307° West 287 330 9,400 -1,200 Descending Los Angeles Center
09:43AM 35.9328 -114.6372 307° West 286 329 9,100 -1,380 Descending Los Angeles Center
09:44AM 35.9708 -114.6978 308° West 277 319 8,000 -1,200 Descending Los Angeles Center
09:44AM 35.9789 -114.7111 307° West 275 316 7,900 -1,320 Descending Los Angeles Center
09:45AM 35.9967 -114.7661 292° West 270 311 6,800 -1,320 Descending Los Angeles Center
09:45AM 36.0086 -114.7917 300° West 265 305 6,600 -420 Descending Los Angeles Center
09:46AM 36.0239 -114.8503 288° West 241 277 6,400 -120 Descending Los Angeles Center
09:46AM 36.0308 -114.8692 294° West 253 291 6,500 -1,020 Climbing Los Angeles Center
09:47AM 36.0419 -114.9133 287° West 190 219 5,400 -1,380 Descending Los Angeles Center
09:47AM 36.0472 -114.9294 292° West 215 247 5,100 -1,140 Descending Los Angeles Center
09:48AM 36.0578 -114.9747 286° West 190 219 4,300 -1,020 Descending Los Angeles Center
09:48AM 36.0664 -114.9986 294° West 189 217 4,100 -900 Descending Los Angeles Center
09:49AM 36.0722 -115.0311 283° West 173 199 3,400 -1,020 Descending Los Angeles Center
09:49AM 36.0761 -115.0553 281° West 179 206 3,100 -840 Descending Los Angeles Center
09:50AM 36.0733 -115.0867 264° West 154 177 2,600 -720 Descending Los Angeles Center
09:50AM 36.0744 -115.1067 274° West 163 188 2,400 -420 Descending Los Angeles Center
09:52AM 36.0667 -115.1500 270° West  Level FlightAware Approximate
09:59AM 36.0801 -115.1523 270° West  Level Estimated